Data for 09/29/2007

Time Sea-Level Adjusted Pressure Absolute Pressure Temperature Relative Humidity Dew Point   
(mb) (inHg) (mb) (inHg) (C) (F) (%) (C) (F)
00:05 1005 29.68 835 24.66 13.4 56.2 47 2.4 36.3
00:10 1005 29.68 835 24.66 13.3 56 48 2.5 36.6
00:15 1005 29.68 835 24.66 13.3 55.9 48 2.6 36.6
00:20 1005 29.68 835 24.66 13.2 55.7 48 2.5 36.5
00:25 1005 29.68 835 24.66 13 55.4 49 2.7 36.9
00:30 1006 29.71 835 24.66 13 55.4 49 2.7 36.8
00:35 1006 29.71 835 24.66 13 55.4 49 2.6 36.7
00:40 1006 29.71 835 24.66 13 55.4 49 2.7 36.9
00:45 1006 29.71 835 24.66 13 55.3 49 2.7 36.8
00:50 1006 29.71 835 24.66 12.9 55.3 50 2.8 37.1
00:55 1006 29.71 835 24.66 12.9 55.2 51 2.9 37.3
01:00 1006 29.71 835 24.66 12.7 54.9 52 3.1 37.5
01:05 1006 29.71 835 24.66 12.5 54.6 53 3.3 38
01:10 1006 29.71 836 24.69 12.4 54.3 53 3.2 37.8
01:15 1006 29.71 836 24.69 12.3 54.2 54 3.5 38.2
01:20 1006 29.71 836 24.69 12.3 54.1 58 4.4 40
01:25 1006 29.71 836 24.69 12 53.6 60 4.6 40.3
01:30 1007 29.74 836 24.69 11.6 53 64 5 41
01:35 1007 29.74 836 24.69 11.4 52.4 69 5.9 42.5
01:40 1007 29.74 836 24.69 11.1 52 70 5.9 42.6
01:45 1007 29.74 836 24.69 10.8 51.5 68 5.2 41.3
01:50 1007 29.74 836 24.69 10.6 51.1 71 5.6 42.1
01:55 1007 29.74 836 24.69 10.4 50.7 71 5.4 41.7
02:00 1007 29.74 836 24.69 10.3 50.5 74 5.8 42.4
02:05 1007 29.74 836 24.69 10.3 50.5 71 5.2 41.3
02:10 1007 29.74 836 24.69 10.3 50.5 76 6.2 43.2
02:15 1007 29.74 836 24.69 9.9 49.9 82 7.1 44.7
02:20 1007 29.74 836 24.69 9.2 48.6 83 6.5 43.8
02:25 1007 29.74 836 24.69 8.9 48 85 6.6 43.9
02:30 1007 29.74 836 24.69 8.7 47.6 87 6.6 43.8
02:35 1007 29.74 836 24.69 8.5 47.3 87 6.4 43.6
02:40 1007 29.74 836 24.69 8.4 47.2 88 6.5 43.7
02:45 1007 29.74 836 24.69 8.6 47.6 84 6.2 43.1
02:50 1007 29.74 836 24.69 8.8 47.8 84 6.3 43.4
02:55 1007 29.74 836 24.69 8.8 47.8 85 6.4 43.5
03:00 1007 29.74 836 24.69 8.6 47.5 87 6.5 43.8
03:05 1007 29.74 836 24.69 8.5 47.3 88 6.6 43.9
03:10 1007 29.74 836 24.69 8.4 47.1 90 6.8 44.2
03:15 1007 29.74 836 24.69 8.4 47.1 89 6.7 44.1
03:20 1007 29.74 836 24.69 8.3 46.9 91 6.9 44.3
03:25 1007 29.74 836 24.69 8.3 46.9 91 6.9 44.5
03:30 1007 29.74 836 24.69 8.2 46.7 91 6.7 44.1
03:35 1007 29.74 836 24.69 8 46.4 91 6.6 43.9
03:40 1007 29.74 836 24.69 7.9 46.3 91 6.5 43.8
03:45 1007 29.74 836 24.69 7.8 46.1 90 6.3 43.4
03:50 1007 29.74 836 24.69 7.8 46.1 90 6.3 43.4
03:55 1007 29.74 836 24.69 7.8 46.1 90 6.3 43.4
04:00 1007 29.74 836 24.69 7.6 45.7 92 6.4 43.5
04:05 1007 29.74 836 24.69 7.5 45.5 92 6.2 43.2
04:10 1007 29.74 836 24.69 7.7 45.8 91 6.3 43.3
04:15 1007 29.74 836 24.69 7.5 45.4 92 6.3 43.3
04:20 1007 29.74 836 24.69 7.2 45 93 6.2 43.2
04:25 1007 29.74 836 24.69 7.2 44.9 93 6.1 43.1
04:30 1007 29.74 836 24.69 7.1 44.8 93 6.1 43
04:35 1007 29.74 836 24.69 7 44.7 92 5.9 42.6
04:40 1006 29.71 836 24.69 7 44.6 92 5.8 42.5
04:45 1006 29.71 836 24.69 7 44.6 93 5.9 42.6
04:50 1006 29.71 836 24.69 6.9 44.4 94 5.9 42.7
04:55 1006 29.71 836 24.69 6.9 44.4 93 5.9 42.6
05:00 1006 29.71 836 24.69 6.9 44.4 93 5.8 42.4
05:05 1006 29.71 836 24.69 6.9 44.3 93 5.9 42.5
05:10 1006 29.71 836 24.69 6.9 44.3 94 5.9 42.6
05:15 1006 29.71 835 24.66 6.9 44.3 94 5.9 42.7
05:20 1006 29.71 835 24.66 6.8 44.3 94 5.9 42.6
05:25 1006 29.71 835 24.66 6.8 44.3 94 6 42.8
05:30 1006 29.71 836 24.69 6.8 44.3 94 5.9 42.7
05:35 1006 29.71 836 24.69 6.9 44.5 93 5.9 42.7
05:40 1006 29.71 835 24.66 6.9 44.4 94 6 42.8
05:45 1006 29.71 835 24.66 6.8 44.3 94 6 42.8
05:50 1006 29.71 836 24.69 6.9 44.4 93 5.8 42.5
05:55 1007 29.74 836 24.69 6.9 44.5 91 5.6 42.1
06:00 1007 29.74 836 24.69 7 44.5 91 5.6 42.1
06:05 1007 29.74 836 24.69 7 44.6 91 5.6 42.1
06:10 1007 29.74 836 24.69 6.9 44.4 93 5.8 42.4
06:15 1007 29.74 836 24.69 6.9 44.5 92 5.7 42.2
06:20 1007 29.74 836 24.69 6.8 44.3 93 5.8 42.5
06:25 1007 29.74 836 24.69 6.8 44.2 92 5.6 42.1
06:30 1007 29.74 836 24.69 6.7 44.1 92 5.5 41.9
06:35 1007 29.74 836 24.69 6.8 44.2 91 5.5 41.9
06:40 1007 29.74 836 24.69 6.8 44.2 92 5.6 42
06:45 1007 29.74 836 24.69 6.7 44.1 92 5.6 42.1
06:50 1007 29.74 836 24.69 6.7 44.1 92 5.6 42.1
06:55 1007 29.74 836 24.69 6.7 44.1 93 5.6 42.1
07:00 1007 29.74 836 24.69 6.7 44.1 92 5.5 41.9
07:05 1007 29.74 836 24.69 6.8 44.2 92 5.6 42
07:10 1007 29.74 837 24.72 6.8 44.2 93 5.7 42.3
07:15 1007 29.74 837 24.72 6.7 44.1 94 5.9 42.6
07:20 1007 29.74 837 24.72 6.7 44.1 94 5.9 42.6
07:25 1007 29.74 837 24.72 6.6 44 95 5.9 42.7
07:30 1007 29.74 837 24.72 6.6 43.8 95 5.9 42.6
07:35 1007 29.74 837 24.72 6.6 43.8 95 5.8 42.4
07:40 1007 29.74 837 24.72 6.7 44 94 5.8 42.5
07:45 1007 29.74 837 24.72 6.7 44.1 94 5.8 42.4
07:50 1008 29.77 837 24.72 6.8 44.3 93 5.7 42.3
07:55 1008 29.77 837 24.72 6.9 44.4 92 5.7 42.2
08:00 1008 29.77 837 24.72 7 44.6 92 5.8 42.4
08:05 1008 29.77 837 24.72 7.1 44.8 91 5.8 42.4
08:10 1008 29.77 837 24.72 7.4 45.2 91 5.9 42.7
08:15 1008 29.77 837 24.72 7.6 45.6 90 6 42.8
08:20 1008 29.77 837 24.72 7.7 45.9 90 6.2 43.1
08:25 1008 29.77 837 24.72 7.7 45.9 90 6.2 43.1
08:30 1008 29.77 837 24.72 7.7 45.9 90 6.1 43
08:35 1008 29.77 837 24.72 7.8 46 89 6.1 43
08:40 1008 29.77 837 24.72 7.8 46.1 89 6.1 43
08:45 1008 29.77 838 24.75 7.7 45.9 89 6.1 43
08:50 1008 29.77 838 24.75 7.5 45.4 90 5.9 42.5
08:55 1009 29.8 838 24.75 6.4 43.5 91 5 41
09:00 1009 29.8 838 24.75 5.7 42.3 92 4.6 40.2
09:05 1009 29.8 838 24.75 5.4 41.7 94 4.5 40
09:10 1009 29.8 838 24.75 5.3 41.5 93 4.3 39.7
09:15 1009 29.8 838 24.75 5.2 41.4 92 4 39.2
09:20 1009 29.8 838 24.75 5.1 41.2 93 4.1 39.5
09:25 1009 29.8 838 24.75 5.1 41.1 93 4.1 39.3
09:30 1009 29.8 838 24.75 5 41 93 4 39.1
09:35 1009 29.8 839 24.78 4.9 40.7 93 3.9 39
09:40 1009 29.8 838 24.75 4.7 40.4 94 3.7 38.7
09:45 1009 29.8 839 24.78 4.5 40.1 93 3.5 38.3
09:50 1010 29.83 839 24.78 4.3 39.8 93 3.3 37.9
09:55 1010 29.83 839 24.78 4.2 39.5 93 3.1 37.6
10:00 1010 29.83 839 24.78 4 39.3 93 3.1 37.5
10:05 1010 29.83 839 24.78 4 39.1 93 3 37.3
10:10 1010 29.83 839 24.78 3.9 39 93 2.9 37.2
10:15 1010 29.83 840 24.81 3.7 38.7 93 2.7 36.9
10:20 1011 29.85 840 24.81 3.5 38.2 94 2.6 36.7
10:25 1011 29.85 840 24.81 3.3 37.9 95 2.6 36.6
10:30 1011 29.85 840 24.81 3.2 37.8 94 2.3 36.1
10:35 1011 29.85 840 24.81 3 37.5 93 2.1 35.8
10:40 1012 29.88 841 24.83 2.9 37.2 95 2.1 35.8
10:45 1012 29.88 841 24.83 2.8 37 94 1.9 35.5
10:50 1012 29.88 841 24.83 2.7 36.8 93 1.6 34.9
10:55 1012 29.88 841 24.83 2.4 36.4 95 1.7 35
11:00 1012 29.88 841 24.83 2.4 36.3 95 1.6 34.8
11:05 1012 29.88 842 24.86 2.4 36.3 95 1.6 34.9
11:10 1012 29.88 842 24.86 2.4 36.4 94 1.6 34.8
11:15 1012 29.88 842 24.86 2.5 36.5 94 1.6 34.9
11:20 1012 29.88 842 24.86 2.7 36.8 93 1.6 34.8
11:25 1012 29.88 842 24.86 2.4 36.3 95 1.6 34.9
11:30 1013 29.91 842 24.86 2.2 36 93 1.2 34.2
11:35 1013 29.91 842 24.86 2.1 35.8 94 1.3 34.3
11:40 1013 29.91 842 24.86 2.1 35.8 94 1.2 34.1
11:45 1013 29.91 842 24.86 2 35.6 95 1.2 34.2
11:50 1013 29.91 842 24.86 2 35.6 95 1.3 34.4
11:55 1013 29.91 842 24.86 2.2 35.9 95 1.5 34.6
12:00 1013 29.91 842 24.86 2.2 36 94 1.4 34.5
12:05 1013 29.91 842 24.86 2.3 36.1 94 1.4 34.5
12:10 1013 29.91 842 24.86 2.3 36.2 94 1.5 34.6
12:15 1013 29.91 843 24.89 2.5 36.5 94 1.6 35
12:20 1013 29.91 843 24.89 2.6 36.7 93 1.6 34.9
12:25 1014 29.94 843 24.89 2.6 36.7 92 1.4 34.6
12:30 1014 29.94 843 24.89 2.4 36.3 93 1.4 34.5
12:35 1014 29.94 843 24.89 2.4 36.4 93 1.5 34.6
12:40 1014 29.94 843 24.89 2.5 36.5 94 1.6 34.9
12:45 1014 29.94 843 24.89 2.6 36.7 93 1.6 34.8
12:50 1014 29.94 843 24.89 3 37.4 92 1.9 35.3
12:55 1014 29.94 843 24.89 3.1 37.5 92 2 35.5
13:00 1014 29.94 843 24.89 3.2 37.7 92 2.1 35.7
13:05 1014 29.94 843 24.89 3.7 38.6 90 2.2 36
13:10 1014 29.94 843 24.89 3.8 38.9 90 2.3 36.1
13:15 1014 29.94 843 24.89 4 39.2 91 2.7 36.9
13:20 1014 29.94 843 24.89 3.9 39.1 90 2.5 36.5
13:25 1014 29.94 843 24.89 3.9 39.1 89 2.4 36.3
13:30 1014 29.94 843 24.89 4.1 39.3 89 2.5 36.4
13:35 1014 29.94 843 24.89 4.2 39.5 89 2.5 36.6
13:40 1014 29.94 843 24.89 4.2 39.6 91 2.8 37
13:45 1014 29.94 843 24.89 4.2 39.6 89 2.6 36.6
13:50 1014 29.94 844 24.92 4.1 39.3 90 2.5 36.5
13:55 1014 29.94 844 24.92 4.1 39.4 92 2.9 37.2
14:00 1014 29.94 844 24.92 4.3 39.8 90 2.8 37
14:05 1015 29.97 844 24.92 4.4 39.9 87 2.4 36.4
14:10 1015 29.97 844 24.92 4.3 39.8 88 2.5 36.6
14:15 1015 29.97 844 24.92 4.2 39.6 88 2.4 36.3
14:20 1015 29.97 844 24.92 4 39.3 89 2.4 36.2
14:25 1015 29.97 844 24.92 3.9 39.1 90 2.5 36.5
14:30 1015 29.97 844 24.92 4.1 39.3 89 2.4 36.4
14:35 1015 29.97 844 24.92 4 39.2 89 2.3 36.2
14:40 1015 29.97 844 24.92 4 39.2 89 2.3 36.1
14:45 1015 29.97 844 24.92 4 39.1 90 2.5 36.6
14:50 1015 29.97 844 24.92 4.1 39.3 90 2.6 36.6
14:55 1015 29.97 844 24.92 4.1 39.4 89 2.5 36.4
15:00 1015 29.97 844 24.92 4.1 39.4 91 2.8 37.1
15:05 1015 29.97 844 24.92 4.2 39.5 89 2.5 36.4
15:10 1015 29.97 844 24.92 4.1 39.3 89 2.5 36.4
15:15 1015 29.97 844 24.92 4.1 39.3 91 2.7 36.9
15:20 1015 29.97 845 24.95 4.2 39.5 90 2.6 36.7
15:25 1015 29.97 845 24.95 4.1 39.4 91 2.7 36.9
15:30 1015 29.97 845 24.95 4.2 39.5 88 2.5 36.4
15:35 1015 29.97 845 24.95 4.1 39.4 90 2.7 36.9
15:40 1016 30 845 24.95 4.3 39.7 89 2.6 36.6
15:45 1016 30 845 24.95 4.4 39.8 89 2.7 36.8
15:50 1016 30 845 24.95 4.3 39.8 90 2.8 37.1
15:55 1016 30 845 24.95 4.4 39.9 88 2.6 36.6
16:00 1016 30 845 24.95 4.5 40 84 1.9 35.4
16:05 1016 30 845 24.95 4.4 40 86 2.3 36.2
16:10 1016 30 845 24.95 4.4 39.9 86 2.3 36.1
16:15 1016 30 845 24.95 4.5 40.1 85 2.2 35.9
16:20 1016 30 845 24.95 4.6 40.4 87 2.7 36.9
16:25 1015 29.97 845 24.95 4.7 40.4 87 2.7 36.8
16:30 1015 29.97 845 24.95 4.7 40.4 86 2.6 36.7
16:35 1016 30 845 24.95 4.9 40.7 87 2.9 37.2
16:40 1016 30 845 24.95 4.9 40.9 85 2.7 36.8
16:45 1016 30 845 24.95 5 41 86 2.8 37.1
16:50 1016 30 845 24.95 5 41 86 2.8 37
16:55 1016 30 845 24.95 4.7 40.4 88 2.8 37
17:00 1016 30 845 24.95 4.6 40.3 87 2.6 36.7
17:05 1016 30 845 24.95 4.6 40.4 86 2.6 36.6
17:10 1016 30 845 24.95 4.7 40.4 85 2.4 36.4
17:15 1016 30 845 24.95 4.8 40.6 84 2.3 36.2
17:20 1016 30 845 24.95 4.9 40.8 85 2.6 36.7
17:25 1016 30 846 24.98 4.8 40.6 86 2.6 36.8
17:30 1016 30 846 24.98 4.8 40.6 86 2.6 36.7
17:35 1016 30 846 24.98 4.8 40.6 86 2.6 36.7
17:40 1016 30 846 24.98 4.8 40.6 86 2.6 36.7
17:45 1017 30.03 846 24.98 4.7 40.5 87 2.8 37
17:50 1017 30.03 846 24.98 4.7 40.4 88 2.8 37
17:55 1017 30.03 846 24.98 4.7 40.4 86 2.6 36.6
18:00 1017 30.03 846 24.98 4.8 40.6 84 2.4 36.2
18:05 1017 30.03 846 24.98 4.8 40.7 83 2.2 36
18:10 1017 30.03 846 24.98 4.8 40.6 84 2.4 36.2
18:15 1017 30.03 846 24.98 4.8 40.7 84 2.3 36.2
18:20 1017 30.03 846 24.98 4.6 40.2 87 2.5 36.6
18:25 1017 30.03 846 24.98 4.5 40.1 86 2.3 36.2
18:30 1017 30.03 846 24.98 4.6 40.2 86 2.4 36.4
18:35 1017 30.03 846 24.98 4.5 40 85 2.2 36
18:40 1017 30.03 846 24.98 4.6 40.2 85 2.3 36.2
18:45 1017 30.03 846 24.98 4.8 40.7 84 2.4 36.4
18:50 1017 30.03 846 24.98 4.8 40.7 85 2.5 36.6
18:55 1017 30.03 847 25.01 4.6 40.2 86 2.4 36.4
19:00 1018 30.06 847 25.01 4.6 40.3 85 2.3 36.2
19:05 1018 30.06 847 25.01 4.5 40.1 86 2.4 36.3
19:10 1018 30.06 847 25.01 4.3 39.7 86 2.2 36
19:15 1018 30.06 847 25.01 4.2 39.5 87 2.1 35.8
19:20 1018 30.06 847 25.01 4.1 39.3 87 2 35.7
19:25 1018 30.06 847 25.01 4.1 39.4 87 2.1 35.9
19:30 1018 30.06 847 25.01 4.3 39.8 86 2.2 35.9
19:35 1018 30.06 847 25.01 4.5 40.1 84 2 35.6
19:40 1018 30.06 847 25.01 4.7 40.5 82 2 35.5
19:45 1018 30.06 847 25.01 4.8 40.7 81 1.8 35.2
19:50 1018 30.06 847 25.01 4.7 40.5 83 2.1 35.7
19:55 1018 30.06 847 25.01 4.5 40.1 85 2.1 35.8
20:00 1018 30.06 847 25.01 4.5 40 83 1.8 35.2
20:05 1018 30.06 847 25.01 4.5 40 81 1.4 34.6
20:10 1018 30.06 847 25.01 4.4 39.9 79 1.1 34
20:15 1018 30.06 847 25.01 4.5 40 81 1.5 34.7
20:20 1018 30.06 847 25.01 4.6 40.3 82 1.9 35.4
20:25 1018 30.06 847 25.01 4.7 40.5 80 1.6 34.8
20:30 1018 30.06 847 25.01 4.7 40.4 82 1.8 35.3
20:35 1018 30.06 847 25.01 4.6 40.3 82 1.7 35.1
20:40 1018 30.06 848 25.04 4.5 40.1 84 2 35.7
20:45 1018 30.06 848 25.04 4.5 40.1 82 1.8 35.2
20:50 1018 30.06 848 25.04 4.6 40.4 86 2.5 36.6
20:55 1018 30.06 848 25.04 4.4 40 89 2.8 37
21:00 1018 30.06 848 25.04 4.2 39.6 90 2.6 36.7
21:05 1018 30.06 848 25.04 4.1 39.4 89 2.5 36.5
21:10 1018 30.06 848 25.04 4.1 39.4 87 2.2 36
21:15 1018 30.06 848 25.04 4.2 39.5 86 2.1 35.8
21:20 1018 30.06 848 25.04 4.3 39.8 87 2.3 36.1
21:25 1018 30.06 848 25.04 4.4 40 86 2.2 36
21:30 1018 30.06 848 25.04 4.4 40 86 2.2 36
21:35 1018 30.06 848 25.04 4.6 40.3 82 1.8 35.2
21:40 1018 30.06 848 25.04 4.7 40.5 81 1.8 35.3
21:45 1018 30.06 848 25.04 4.8 40.7 81 1.9 35.5
21:50 1019 30.09 848 25.04 4.9 40.8 82 2.1 35.7
21:55 1019 30.09 848 25.04 4.9 40.9 84 2.4 36.4
22:00 1019 30.09 848 25.04 4.9 40.9 83 2.3 36.2
22:05 1019 30.09 848 25.04 4.9 40.7 84 2.3 36.2
22:10 1019 30.09 848 25.04 4.9 40.9 82 2.1 35.8
22:15 1019 30.09 848 25.04 5 40.9 81 2 35.7
22:20 1019 30.09 848 25.04 5 41 81 2.1 35.8
22:25 1019 30.09 848 25.04 5 41.1 82 2.2 35.9
22:30 1019 30.09 848 25.04 5 40.9 82 2.1 35.8
22:35 1019 30.09 848 25.04 5 41 81 2 35.7
22:40 1019 30.09 848 25.04 5 41 82 2.1 35.7
22:45 1019 30.09 848 25.04 5 41.1 82 2.3 36.1
22:50 1019 30.09 848 25.04 4.9 40.9 82 2.1 35.8
22:55 1019 30.09 848 25.04 4.9 40.8 83 2.2 36
23:00 1019 30.09 848 25.04 5 41.1 83 2.3 36.2
23:05 1019 30.09 848 25.04 5 41.1 82 2.3 36.1
23:10 1019 30.09 848 25.04 5.1 41.1 83 2.3 36.2
23:15 1019 30.09 848 25.04 5 41 83 2.4 36.4
23:20 1019 30.09 848 25.04 5.1 41.2 84 2.6 36.6
23:25 1019 30.09 848 25.04 5 41 84 2.5 36.5
23:30 1019 30.09 848 25.04 4.5 40.2 85 2.3 36.1
23:35 1019 30.09 848 25.04 4.5 40 87 2.5 36.4
23:40 1019 30.09 848 25.04 4.3 39.7 87 2.4 36.3
23:45 1019 30.09 848 25.04 4.2 39.6 87 2.3 36.1
23:50 1019 30.09 848 25.04 4.2 39.6 86 2.1 35.8
23:55 1019 30.09 848 25.04 4.2 39.5 86 2.1 35.7
24:00 1019 30.09 848 25.04 4.4 39.9 85 2 35.7